createdAt,value
2022-08-01T00:01:59.156Z,50.53
2022-08-01T00:05:04.033Z,49.98
2022-08-01T00:08:09.686Z,49.82
2022-08-01T00:11:13.798Z,50.10
2022-08-01T00:14:44.810Z,50.82
2022-08-01T00:17:50.227Z,50.33
2022-08-01T00:20:57.478Z,50.69
2022-08-01T00:24:01.827Z,50.53
2022-08-01T00:27:08.694Z,51.37
2022-08-01T00:30:14.913Z,50.83
2022-08-01T00:33:23.991Z,51.81
2022-08-01T00:36:28.483Z,51.62
2022-08-01T00:39:44.333Z,52.00
2022-08-01T00:42:50.276Z,51.76
2022-08-01T00:45:54.765Z,51.39
2022-08-01T00:49:01.893Z,51.08
2022-08-01T00:52:09.333Z,51.19
2022-08-01T00:55:15.440Z,50.89
2022-08-01T00:58:20.372Z,50.83
2022-08-01T01:01:50.814Z,51.16
2022-08-01T01:04:58.841Z,50.74
2022-08-01T01:08:10.474Z,52.06
2022-08-01T01:11:24.189Z,50.99
2022-08-01T01:14:36.354Z,52.53
2022-08-01T01:17:51.990Z,51.15
2022-08-01T01:26:31.446Z,52.82
2022-08-01T01:29:58.682Z,53.09
2022-08-01T01:33:36.037Z,51.87
2022-08-01T01:36:52.501Z,53.98
2022-08-01T01:40:13.127Z,52.62
2022-08-01T01:43:28.702Z,53.06
2022-08-01T01:46:41.225Z,52.50
2022-08-01T01:49:49.439Z,52.37
2022-08-01T01:52:57.985Z,52.71
2022-08-01T01:56:04.445Z,52.51
2022-08-01T01:59:09.169Z,51.81
2022-08-01T02:02:18.418Z,51.63
2022-08-01T02:05:25.868Z,52.36
2022-08-01T02:08:33.213Z,52.83
2022-08-01T02:12:07.365Z,53.57
2022-08-01T02:15:10.977Z,53.57
2022-08-01T02:19:07.684Z,52.54
2022-08-01T02:22:17.078Z,52.36
2022-08-01T02:25:27.117Z,51.17
2022-08-01T02:28:37.176Z,51.76
2022-08-01T02:31:46.204Z,53.13
2022-08-01T02:35:21.646Z,53.44
2022-08-01T02:38:34.102Z,52.23
2022-08-01T02:41:43.974Z,53.25
2022-08-01T02:44:51.623Z,52.71
2022-08-01T02:48:01.869Z,52.09
2022-08-01T02:51:36.458Z,53.04
2022-08-01T02:54:44.845Z,53.50
2022-08-01T02:57:56.851Z,54.07
2022-08-01T03:01:06.583Z,53.69
2022-08-01T03:04:13.971Z,53.93
2022-08-01T03:07:20.203Z,55.00
2022-08-01T03:10:30.856Z,55.37
2022-08-01T03:13:36.339Z,55.66
2022-08-01T03:16:44.371Z,55.03
2022-08-01T03:19:52.070Z,55.73
2022-08-01T03:22:59.670Z,55.92
2022-08-01T03:26:06.861Z,53.91
2022-08-01T03:29:18.494Z,54.08
2022-08-01T03:32:25.150Z,53.87
2022-08-01T03:35:36.020Z,53.10
2022-08-01T03:38:45.582Z,54.09
2022-08-01T03:41:59.425Z,54.61
2022-08-01T03:46:00.165Z,54.65
2022-08-01T03:49:15.968Z,54.71
2022-08-01T03:52:49.017Z,55.77
2022-08-01T03:56:03.481Z,57.37
2022-08-01T03:59:13.902Z,56.42
2022-08-01T04:02:22.756Z,57.67
2022-08-01T04:19:14.478Z,57.07
2022-08-01T04:23:56.275Z,55.35
2022-08-01T04:28:16.829Z,56.01
2022-08-01T04:40:44.762Z,54.54
2022-08-01T04:49:04.207Z,50.80
2022-08-01T04:52:11.727Z,50.64
2022-08-01T04:55:19.731Z,49.17
2022-08-01T04:58:25.887Z,47.98
2022-08-01T05:01:31.536Z,48.19
2022-08-01T05:04:41.864Z,47.21
2022-08-01T05:07:48.236Z,45.94
2022-08-01T05:10:56.186Z,46.12
2022-08-01T05:14:02.982Z,46.25
2022-08-01T05:17:12.195Z,45.73
2022-08-01T05:20:18.938Z,45.68
2022-08-01T05:23:42.323Z,45.78
2022-08-01T05:26:52.059Z,44.80
2022-08-01T05:30:00.078Z,44.08
2022-08-01T05:33:07.311Z,43.96
2022-08-01T05:36:12.316Z,43.42
2022-08-01T05:39:18.371Z,42.39
2022-08-01T05:42:26.902Z,42.03
2022-08-01T05:45:36.153Z,42.23
2022-08-01T05:48:42.198Z,43.25
2022-08-01T05:51:49.323Z,43.04
2022-08-01T05:55:00.340Z,42.38
2022-08-01T05:58:08.338Z,40.98
2022-08-01T06:01:22.686Z,39.81
2022-08-01T06:04:27.651Z,39.48
2022-08-01T06:07:34.565Z,39.01
2022-08-01T06:10:43.255Z,38.05
2022-08-01T06:13:50.241Z,37.77
2022-08-01T06:16:58.044Z,37.63
2022-08-01T06:20:02.877Z,37.90
2022-08-01T06:23:23.750Z,36.44
2022-08-01T06:26:32.478Z,36.05
2022-08-01T06:29:40.743Z,36.07
2022-08-01T06:33:00.401Z,35.77
2022-08-01T06:36:13.860Z,34.52
2022-08-01T06:39:20.425Z,36.46
2022-08-01T06:42:27.020Z,36.18
2022-08-01T06:45:33.464Z,34.48
2022-08-01T06:48:40.536Z,34.62
2022-08-01T06:51:49.227Z,33.68
2022-08-01T06:54:57.870Z,32.87
2022-08-01T06:58:05.467Z,32.25
2022-08-01T07:01:10.184Z,31.42
2022-08-01T07:04:22.913Z,30.86
2022-08-01T07:07:36.410Z,30.81
2022-08-01T07:11:03.412Z,30.70
2022-08-01T07:14:23.006Z,29.36
2022-08-01T07:17:28.409Z,30.47
2022-08-01T07:20:41.279Z,30.19
2022-08-01T07:23:58.456Z,30.44
2022-08-01T07:27:24.387Z,30.24
2022-08-01T07:30:36.154Z,30.11
2022-08-01T07:33:48.775Z,30.40
2022-08-01T07:36:57.849Z,30.34
2022-08-01T07:40:02.980Z,29.64
2022-08-01T07:43:09.977Z,29.22
2022-08-01T07:46:15.637Z,30.75
2022-08-01T07:49:25.574Z,29.44
2022-08-01T07:52:33.815Z,30.01
2022-08-01T07:55:43.797Z,29.07
2022-08-01T07:58:50.059Z,29.04
2022-08-01T08:01:55.711Z,29.04
2022-08-01T08:05:02.352Z,28.60
2022-08-01T08:08:11.846Z,29.00
2022-08-01T08:11:16.998Z,29.01
2022-08-01T08:14:32.344Z,29.52
2022-08-01T08:17:38.218Z,28.93
2022-08-01T08:20:44.044Z,28.88
2022-08-01T08:24:07.128Z,29.07
2022-08-01T08:27:17.532Z,29.46
2022-08-01T08:30:24.038Z,30.09
2022-08-01T08:33:30.554Z,28.84
2022-08-01T08:36:38.229Z,30.41
2022-08-01T08:40:03.415Z,30.60
2022-08-01T08:43:08.162Z,30.54
2022-08-01T08:46:14.774Z,31.10
2022-08-01T08:49:35.529Z,30.34
2022-08-01T08:52:44.982Z,30.45
2022-08-01T08:55:55.904Z,31.38
2022-08-01T08:59:04.872Z,31.00
2022-08-01T09:02:12.686Z,31.20
2022-08-01T09:05:20.239Z,32.01
2022-08-01T09:08:24.390Z,31.57
2022-08-01T09:11:30.991Z,31.31
2022-08-01T09:14:37.316Z,30.66
2022-08-01T09:17:45.069Z,31.33
2022-08-01T09:20:50.473Z,31.51
2022-08-01T09:24:01.952Z,31.45
2022-08-01T09:27:22.825Z,31.55
2022-08-01T09:30:32.564Z,32.43
2022-08-01T09:33:59.803Z,32.80
2022-08-01T09:37:37.726Z,33.32
2022-08-01T09:40:50.293Z,33.66
2022-08-01T09:44:12.063Z,33.40
2022-08-01T09:47:19.142Z,33.63
2022-08-01T09:50:45.188Z,33.66
2022-08-01T09:53:54.712Z,34.04
2022-08-01T09:57:13.678Z,34.28
2022-08-01T10:00:44.848Z,33.93
2022-08-01T10:04:19.878Z,33.30
2022-08-01T10:07:42.850Z,33.37
2022-08-01T10:11:16.700Z,33.20
2022-08-01T10:14:52.716Z,33.77
2022-08-01T10:18:39.837Z,32.33
2022-08-01T10:21:58.091Z,32.84
2022-08-01T10:25:07.492Z,33.60
2022-08-01T10:28:26.745Z,32.98
2022-08-01T10:31:36.139Z,32.57
2022-08-01T10:34:46.575Z,32.02
2022-08-01T10:38:02.085Z,32.47
2022-08-01T10:41:41.607Z,31.75
2022-08-01T10:45:08.974Z,31.04
2022-08-01T10:48:49.288Z,30.79
2022-08-01T10:52:22.199Z,31.52
2022-08-01T10:55:31.290Z,32.24
2022-08-01T10:58:44.065Z,31.63
2022-08-01T11:02:02.006Z,31.95
2022-08-01T11:05:17.229Z,31.45
2022-08-01T11:08:28.947Z,31.51
2022-08-01T11:12:01.234Z,31.53
2022-08-01T11:15:31.255Z,30.08
2022-08-01T11:22:25.261Z,31.33
2022-08-01T11:26:17.464Z,31.15
2022-08-01T11:29:29.616Z,30.50
2022-08-01T11:33:10.421Z,31.10
2022-08-01T11:37:01.132Z,31.20
2022-08-01T11:40:25.570Z,30.64
2022-08-01T11:43:34.673Z,30.61
2022-08-01T11:46:51.994Z,30.66
2022-08-01T11:53:59.330Z,30.97
2022-08-01T11:57:10.215Z,31.52
2022-08-01T12:00:34.698Z,31.49
2022-08-01T12:03:39.247Z,32.02
2022-08-01T12:06:55.470Z,32.07
2022-08-01T12:10:07.520Z,31.75
2022-08-01T12:13:14.528Z,31.12
2022-08-01T12:16:32.299Z,31.62
2022-08-01T12:19:42.125Z,30.85
2022-08-01T12:23:07.084Z,30.11
2022-08-01T12:26:28.327Z,30.94
2022-08-01T12:29:49.011Z,31.09
2022-08-01T12:33:08.571Z,30.83
2022-08-01T12:36:17.263Z,31.22
2022-08-01T12:39:32.230Z,31.60
2022-08-01T12:42:43.504Z,31.31
2022-08-01T12:45:58.804Z,31.57
2022-08-01T12:50:01.256Z,30.63
2022-08-01T12:53:41.228Z,30.66
2022-08-01T12:57:08.329Z,30.62
2022-08-01T13:00:50.580Z,30.89
2022-08-01T13:04:25.755Z,30.76
2022-08-01T13:12:40.843Z,31.07
2022-08-01T13:15:46.905Z,30.72
2022-08-01T13:18:53.428Z,30.23
2022-08-01T13:21:59.792Z,29.81
2022-08-01T13:25:16.075Z,30.43
2022-08-01T13:28:26.763Z,30.19
2022-08-01T13:51:21.846Z,31.00
2022-08-01T13:54:36.078Z,31.24
2022-08-01T13:57:39.943Z,31.15
2022-08-01T14:00:47.185Z,30.97
2022-08-01T14:03:52.189Z,30.94
2022-08-01T14:06:57.656Z,31.56
2022-08-01T14:10:19.813Z,31.43
2022-08-01T14:13:32.156Z,31.24
2022-08-01T14:16:40.534Z,30.78
2022-08-01T14:19:46.510Z,30.93
2022-08-01T14:22:52.304Z,30.76
2022-08-01T14:26:00.498Z,30.91
2022-08-01T14:29:24.641Z,30.71
2022-08-01T14:37:02.566Z,30.77
2022-08-01T14:40:14.961Z,30.79
2022-08-01T14:43:29.463Z,30.53
2022-08-01T14:46:36.919Z,30.19
2022-08-01T14:50:13.267Z,30.71
2022-08-01T14:53:17.483Z,30.88
2022-08-01T14:56:22.713Z,29.99
2022-08-01T14:59:27.000Z,30.11
2022-08-01T15:02:30.763Z,30.77
2022-08-01T15:05:35.025Z,30.58
2022-08-01T15:08:38.855Z,30.23
2022-08-01T15:11:45.027Z,30.39
2022-08-01T15:14:51.966Z,30.62
2022-08-01T15:17:56.294Z,30.50
2022-08-01T15:21:00.076Z,30.84
2022-08-01T15:24:05.010Z,30.21
2022-08-01T15:27:10.599Z,30.38
2022-08-01T15:30:17.346Z,30.59
2022-08-01T15:33:27.588Z,30.26
2022-08-01T15:36:32.571Z,30.23
2022-08-01T15:39:56.635Z,30.23
2022-08-01T15:43:10.449Z,30.07
2022-08-01T15:50:44.015Z,29.69
2022-08-01T15:53:54.610Z,30.12
2022-08-01T15:57:01.138Z,30.20
2022-08-01T16:00:08.367Z,30.28
2022-08-01T16:03:15.690Z,30.31
2022-08-01T16:06:22.144Z,30.18
2022-08-01T16:09:41.822Z,30.62
2022-08-01T16:12:47.392Z,30.78
2022-08-01T16:16:05.055Z,30.50
2022-08-01T16:19:24.427Z,30.58
2022-08-01T16:22:46.202Z,31.16
2022-08-01T16:25:58.803Z,31.23
2022-08-01T16:29:34.672Z,31.19
2022-08-01T16:33:55.064Z,31.50
2022-08-01T16:37:11.990Z,31.44
2022-08-01T16:40:31.152Z,31.51
2022-08-01T16:43:53.965Z,31.58
2022-08-01T16:47:02.438Z,31.71
2022-08-01T16:50:28.669Z,31.67
2022-08-01T16:53:34.822Z,31.53
2022-08-01T16:56:40.167Z,31.50
2022-08-01T16:59:43.763Z,31.77
2022-08-01T17:02:57.756Z,31.76
2022-08-01T17:11:13.881Z,32.09
2022-08-01T17:14:23.741Z,32.74
2022-08-01T17:17:41.610Z,33.29
2022-08-01T17:37:51.891Z,33.90
2022-08-01T17:46:35.800Z,33.92
2022-08-01T17:49:54.918Z,33.98
2022-08-01T17:54:05.270Z,34.10
2022-08-01T17:57:15.022Z,34.21
2022-08-01T18:00:24.357Z,34.71
2022-08-01T18:03:41.442Z,35.32
2022-08-01T18:07:10.399Z,36.01
2022-08-01T18:10:18.114Z,36.06
2022-08-01T18:18:03.182Z,37.10
2022-08-01T18:21:42.705Z,37.10
2022-08-01T18:24:51.251Z,37.13
2022-08-01T18:29:03.310Z,37.64
2022-08-01T18:32:08.652Z,37.77
2022-08-01T18:35:15.924Z,38.05
2022-08-01T18:38:19.617Z,38.82
2022-08-01T18:41:25.769Z,39.02
2022-08-01T18:44:59.328Z,39.34
2022-08-01T18:48:48.840Z,40.30
2022-08-01T18:51:54.570Z,41.42
2022-08-01T18:54:59.049Z,41.98
2022-08-01T18:58:04.762Z,42.47
2022-08-01T19:01:10.476Z,42.64
2022-08-01T19:09:32.526Z,43.02
2022-08-01T19:12:42.542Z,43.51
2022-08-01T19:15:48.181Z,43.28
2022-08-01T19:23:29.702Z,44.17
2022-08-01T19:27:04.996Z,45.03
2022-08-01T19:42:13.879Z,44.86
2022-08-01T19:45:46.026Z,46.49
2022-08-01T19:48:54.025Z,46.13
2022-08-01T19:52:02.793Z,45.88
2022-08-01T20:00:28.278Z,46.73
2022-08-01T20:17:59.751Z,47.17
2022-08-01T20:21:07.157Z,47.83
2022-08-01T20:29:03.543Z,48.32
2022-08-01T20:32:28.344Z,47.96
2022-08-01T20:39:09.638Z,48.11
2022-08-01T20:42:21.413Z,48.30
2022-08-01T20:45:27.694Z,48.23
2022-08-01T20:48:36.242Z,48.31
2022-08-01T20:51:42.618Z,48.76
2022-08-01T20:54:49.250Z,48.65
2022-08-01T20:57:56.085Z,48.99
2022-08-01T21:01:09.335Z,49.34
2022-08-01T21:04:41.607Z,50.12
2022-08-01T21:07:52.929Z,50.10
2022-08-01T21:11:03.392Z,49.04
2022-08-01T21:14:15.866Z,49.66
2022-08-01T21:17:34.011Z,49.33
2022-08-01T21:20:45.355Z,51.05
2022-08-01T21:23:55.723Z,50.85
2022-08-01T21:27:05.087Z,50.87
2022-08-01T21:30:11.614Z,50.90
2022-08-01T21:33:16.395Z,51.01
2022-08-01T21:36:21.733Z,51.49
2022-08-01T21:39:28.846Z,52.13
2022-08-01T21:42:37.718Z,51.97
2022-08-01T21:45:58.006Z,51.06
2022-08-01T21:49:04.257Z,50.34
2022-08-01T21:52:15.588Z,50.86
2022-08-01T21:55:35.706Z,51.63
2022-08-01T21:58:51.699Z,51.54
2022-08-01T22:02:04.656Z,50.64
2022-08-01T22:05:11.726Z,51.06
2022-08-01T22:08:22.653Z,50.83
2022-08-01T22:11:33.357Z,52.08
2022-08-01T22:14:43.539Z,52.79
2022-08-01T22:17:51.749Z,52.48
2022-08-01T22:20:59.125Z,51.98
2022-08-01T22:24:05.781Z,53.29
2022-08-01T22:28:06.171Z,53.19
2022-08-01T22:31:42.879Z,53.04
2022-08-01T22:34:46.972Z,52.09
2022-08-01T22:37:56.178Z,52.43
2022-08-01T22:41:16.504Z,52.21
2022-08-01T22:44:37.806Z,52.11
2022-08-01T22:47:55.803Z,51.41
2022-08-01T22:51:08.366Z,51.71
2022-08-01T22:54:16.656Z,51.98
2022-08-01T22:57:31.256Z,51.68
2022-08-01T23:00:37.662Z,51.56
2022-08-01T23:03:48.762Z,52.68
2022-08-01T23:06:56.464Z,52.74
2022-08-01T23:10:06.928Z,52.94
2022-08-01T23:13:12.680Z,53.24
2022-08-01T23:16:19.175Z,54.44
2022-08-01T23:19:28.577Z,54.37
2022-08-01T23:22:35.631Z,53.27
2022-08-01T23:25:42.274Z,54.09
2022-08-01T23:28:48.561Z,53.91
2022-08-01T23:32:03.001Z,53.62
2022-08-01T23:35:11.858Z,53.67
2022-08-01T23:38:17.301Z,53.88
2022-08-01T23:41:22.992Z,53.94
2022-08-01T23:44:27.963Z,53.22
2022-08-01T23:47:32.423Z,52.46
2022-08-01T23:50:41.253Z,53.98
2022-08-01T23:53:46.389Z,54.90
2022-08-01T23:56:53.177Z,54.90
2022-08-01T23:59:58.507Z,55.50
